createdAt,value
2022-07-26T00:00:40.313Z,51.259560
2022-07-26T00:01:40.324Z,51.259552
2022-07-26T00:02:47.321Z,51.259575
2022-07-26T00:03:41.216Z,51.259571
2022-07-26T00:04:40.185Z,51.259563
2022-07-26T00:05:40.225Z,51.259544
2022-07-26T00:06:40.181Z,51.259548
2022-07-26T00:07:40.173Z,51.259552
2022-07-26T00:08:40.151Z,51.259514
2022-07-26T00:09:43.786Z,51.259510
2022-07-26T00:10:41.150Z,51.259502
2022-07-26T00:11:40.128Z,51.259525
2022-07-26T00:12:40.110Z,51.259575
2022-07-26T00:13:40.107Z,51.259590
2022-07-26T00:14:40.100Z,51.259556
2022-07-26T00:15:40.102Z,51.259533
2022-07-26T00:16:40.188Z,51.259518
2022-07-26T00:17:40.069Z,51.259521
2022-07-26T00:18:40.089Z,51.259521
2022-07-26T00:19:40.047Z,51.259521
2022-07-26T00:20:40.054Z,51.259529
2022-07-26T00:21:40.881Z,51.259541
2022-07-26T00:22:40.025Z,51.259537
2022-07-26T00:23:40.004Z,51.259529
2022-07-26T00:24:39.993Z,51.259518
2022-07-26T00:25:40.005Z,51.259525
2022-07-26T00:26:39.976Z,51.259521
2022-07-26T00:27:39.964Z,51.259518
2022-07-26T00:28:39.952Z,51.259537
2022-07-26T00:29:39.951Z,51.259533
2022-07-26T00:30:39.955Z,51.259567
2022-07-26T00:31:39.974Z,51.259548
2022-07-26T00:32:39.911Z,51.259563
2022-07-26T00:33:39.913Z,51.259567
2022-07-26T00:34:39.911Z,51.259583
2022-07-26T00:35:39.900Z,51.259560
2022-07-26T00:36:41.822Z,51.259563
2022-07-26T00:37:39.864Z,51.259586
2022-07-26T00:38:39.858Z,51.259586
2022-07-26T00:39:39.848Z,51.259594
2022-07-26T00:40:39.851Z,51.259541
2022-07-26T00:41:39.892Z,51.259521
2022-07-26T00:42:39.813Z,51.259556
2022-07-26T00:43:39.804Z,51.259617
2022-07-26T00:44:39.793Z,51.259560
2022-07-26T00:45:39.843Z,51.259575
2022-07-26T00:46:39.819Z,51.259575
2022-07-26T00:47:39.766Z,51.259609
2022-07-26T00:48:39.788Z,51.259548
2022-07-26T00:49:39.748Z,51.259521
2022-07-26T00:50:39.754Z,51.259495
2022-07-26T00:51:39.729Z,51.259514
2022-07-26T00:52:39.711Z,51.259537
2022-07-26T00:53:39.709Z,51.259541
2022-07-26T00:54:39.711Z,51.259502
2022-07-26T00:55:39.699Z,51.259541
2022-07-26T00:56:39.685Z,51.259495
2022-07-26T00:57:39.672Z,51.259441
2022-07-26T00:58:39.663Z,51.259464
2022-07-26T00:59:39.648Z,51.259499
2022-07-26T01:00:39.645Z,51.259567
2022-07-26T01:01:39.769Z,51.259544
2022-07-26T01:02:39.699Z,51.259560
2022-07-26T01:03:39.994Z,51.259476
2022-07-26T01:04:39.598Z,51.259453
2022-07-26T01:05:39.602Z,51.259472
2022-07-26T01:06:39.581Z,51.259476
2022-07-26T01:07:39.573Z,51.259460
2022-07-26T01:08:39.546Z,51.259480
2022-07-26T01:09:39.551Z,51.259441
2022-07-26T01:10:39.555Z,51.259480
2022-07-26T01:11:39.525Z,51.259502
2022-07-26T01:12:39.505Z,51.259502
2022-07-26T01:13:39.509Z,51.259499
2022-07-26T01:14:39.499Z,51.259514
2022-07-26T01:15:39.547Z,51.259495
2022-07-26T01:16:39.524Z,51.259514
2022-07-26T01:17:39.460Z,51.259525
2022-07-26T01:18:39.462Z,51.259518
2022-07-26T01:19:39.459Z,51.259506
2022-07-26T01:20:39.458Z,51.259499
2022-07-26T01:21:39.425Z,51.259472
2022-07-26T01:22:39.422Z,51.259434
2022-07-26T01:23:39.419Z,51.259407
2022-07-26T01:24:39.400Z,51.259354
2022-07-26T01:25:42.397Z,51.259331
2022-07-26T01:26:39.373Z,51.259407
2022-07-26T01:27:39.723Z,51.259403
2022-07-26T01:28:39.365Z,51.259472
2022-07-26T01:29:39.343Z,51.259434
2022-07-26T01:30:39.360Z,51.259491
2022-07-26T01:31:39.387Z,51.259453
2022-07-26T01:32:39.454Z,51.259460
2022-07-26T01:33:39.308Z,51.259556
2022-07-26T01:34:39.303Z,51.259560
2022-07-26T01:35:39.303Z,51.259541
2022-07-26T01:36:39.704Z,51.259483
2022-07-26T01:37:39.272Z,51.259487
2022-07-26T01:38:39.254Z,51.259560
2022-07-26T01:39:39.249Z,51.259563
2022-07-26T01:40:39.257Z,51.259537
2022-07-26T01:41:39.218Z,51.259537
2022-07-26T01:42:39.219Z,51.259605
2022-07-26T01:43:39.210Z,51.259583
2022-07-26T01:44:39.200Z,51.259521
2022-07-26T01:45:39.426Z,51.259525
2022-07-26T01:46:39.184Z,51.259529
2022-07-26T01:47:39.172Z,51.259518
2022-07-26T01:48:39.213Z,51.259499
2022-07-26T01:49:39.138Z,51.259476
2022-07-26T01:50:39.176Z,51.259541
2022-07-26T01:51:39.139Z,51.259472
2022-07-26T01:52:39.127Z,51.259483
2022-07-26T01:53:39.126Z,51.259487
2022-07-26T01:54:39.102Z,51.259491
2022-07-26T01:55:39.093Z,51.259510
2022-07-26T01:56:39.097Z,51.259491
2022-07-26T01:57:39.069Z,51.259521
2022-07-26T01:58:39.057Z,51.259525
2022-07-26T01:59:39.051Z,51.259491
2022-07-26T02:00:39.074Z,51.259438
2022-07-26T02:01:40.401Z,51.259495
2022-07-26T02:02:39.165Z,51.259571
2022-07-26T02:03:39.018Z,51.259602
2022-07-26T02:04:39.008Z,51.259571
2022-07-26T02:05:38.980Z,51.259571
2022-07-26T02:06:39.005Z,51.259544
2022-07-26T02:07:38.972Z,51.259518
2022-07-26T02:08:38.963Z,51.259510
2022-07-26T02:09:39.981Z,51.259525
2022-07-26T02:10:38.949Z,51.259567
2022-07-26T02:11:38.957Z,51.259586
2022-07-26T02:12:38.930Z,51.259495
2022-07-26T02:13:38.914Z,51.259518
2022-07-26T02:14:38.909Z,51.259567
2022-07-26T02:15:38.944Z,51.259510
2022-07-26T02:16:38.907Z,51.259521
2022-07-26T02:17:38.871Z,51.259510
2022-07-26T02:18:38.863Z,51.259525
2022-07-26T02:19:38.852Z,51.259521
2022-07-26T02:20:38.848Z,51.259491
2022-07-26T02:21:38.843Z,51.259457
2022-07-26T02:22:38.823Z,51.259445
2022-07-26T02:23:41.760Z,51.259476
2022-07-26T02:24:38.804Z,51.259529
2022-07-26T02:25:38.789Z,51.259510
2022-07-26T02:26:38.803Z,51.259502
2022-07-26T02:27:38.773Z,51.259514
2022-07-26T02:28:38.769Z,51.259544
2022-07-26T02:29:38.742Z,51.259533
2022-07-26T02:30:38.746Z,51.259510
2022-07-26T02:31:38.803Z,51.259499
2022-07-26T02:32:38.727Z,51.259518
2022-07-26T02:33:38.718Z,51.259434
2022-07-26T02:34:38.702Z,51.259483
2022-07-26T02:35:38.694Z,51.259525
2022-07-26T02:36:38.700Z,51.259556
2022-07-26T02:37:43.739Z,51.259518
2022-07-26T02:38:39.670Z,51.259476
2022-07-26T02:39:38.652Z,51.259499
2022-07-26T02:40:38.631Z,51.259529
2022-07-26T02:41:38.672Z,51.259483
2022-07-26T02:42:38.627Z,51.259430
2022-07-26T02:43:38.614Z,51.259476
2022-07-26T02:44:38.592Z,51.259483
2022-07-26T02:45:38.598Z,51.259537
2022-07-26T02:46:38.641Z,51.259529
2022-07-26T02:47:38.572Z,51.259560
2022-07-26T02:48:38.614Z,51.259586
2022-07-26T02:49:38.551Z,51.259487
2022-07-26T02:50:38.546Z,51.259567
2022-07-26T02:51:38.552Z,51.259556
2022-07-26T02:52:38.515Z,51.259583
2022-07-26T02:53:38.557Z,51.259537
2022-07-26T02:54:38.506Z,51.259602
2022-07-26T02:55:38.496Z,51.259583
2022-07-26T02:56:38.501Z,51.259598
2022-07-26T02:57:45.566Z,51.259594
2022-07-26T02:58:39.464Z,51.259613
2022-07-26T02:59:38.452Z,51.259548
2022-07-26T03:00:38.436Z,51.259487
2022-07-26T03:01:38.502Z,51.259544
2022-07-26T03:02:38.467Z,51.259617
2022-07-26T03:03:38.412Z,51.259628
2022-07-26T03:04:38.400Z,51.259693
2022-07-26T03:05:38.425Z,51.259617
2022-07-26T03:06:38.399Z,51.259655
2022-07-26T03:07:38.375Z,51.259632
2022-07-26T03:08:38.362Z,51.259605
2022-07-26T03:09:38.348Z,51.259499
2022-07-26T03:10:38.342Z,51.259476
2022-07-26T03:11:38.352Z,51.259495
2022-07-26T03:12:38.322Z,51.259571
2022-07-26T03:13:38.306Z,51.259594
2022-07-26T03:14:38.301Z,51.259506
2022-07-26T03:15:38.333Z,51.259525
2022-07-26T03:16:38.321Z,51.259567
2022-07-26T03:17:38.264Z,51.259537
2022-07-26T03:18:38.264Z,51.259552
2022-07-26T03:19:38.252Z,51.259563
2022-07-26T03:20:38.233Z,51.259621
2022-07-26T03:21:38.253Z,51.259567
2022-07-26T03:22:38.229Z,51.259560
2022-07-26T03:23:38.212Z,51.259567
2022-07-26T03:24:38.198Z,51.259563
2022-07-26T03:25:38.183Z,51.259590
2022-07-26T03:26:39.198Z,51.259560
2022-07-26T03:27:38.170Z,51.259586
2022-07-26T03:28:38.162Z,51.259514
2022-07-26T03:29:38.155Z,51.259537
2022-07-26T03:30:38.162Z,51.259617
2022-07-26T03:31:38.215Z,51.259617
2022-07-26T03:32:38.124Z,51.259621
2022-07-26T03:33:38.109Z,51.259659
2022-07-26T03:34:38.101Z,51.259628
2022-07-26T03:35:38.090Z,51.259571
2022-07-26T03:36:38.089Z,51.259594
2022-07-26T03:37:46.045Z,51.259567
2022-07-26T03:38:39.057Z,51.259556
2022-07-26T03:39:38.091Z,51.259613
2022-07-26T03:40:38.028Z,51.259602
2022-07-26T03:41:38.043Z,51.259563
2022-07-26T03:42:38.041Z,51.259605
2022-07-26T03:43:38.006Z,51.259560
2022-07-26T03:44:37.995Z,51.259560
2022-07-26T03:45:37.988Z,51.259556
2022-07-26T03:46:38.028Z,51.259605
2022-07-26T03:47:37.967Z,51.259621
2022-07-26T03:48:38.000Z,51.259571
2022-07-26T03:49:37.949Z,51.259567
2022-07-26T03:50:37.938Z,51.259590
2022-07-26T03:51:37.948Z,51.259563
2022-07-26T03:52:37.905Z,51.259541
2022-07-26T03:53:37.906Z,51.259541
2022-07-26T03:54:37.899Z,51.259533
2022-07-26T03:55:37.882Z,51.259556
2022-07-26T03:56:37.942Z,51.259537
2022-07-26T03:57:37.866Z,51.259537
2022-07-26T03:58:37.854Z,51.259563
2022-07-26T03:59:37.844Z,51.259560
2022-07-26T04:00:37.832Z,51.259521
2022-07-26T04:01:37.940Z,51.259506
2022-07-26T04:02:37.882Z,51.259544
2022-07-26T04:03:37.807Z,51.259548
2022-07-26T04:04:37.795Z,51.259586
2022-07-26T04:05:37.788Z,51.259533
2022-07-26T04:06:37.793Z,51.259521
2022-07-26T04:07:37.781Z,51.259510
2022-07-26T04:08:37.746Z,51.259521
2022-07-26T04:09:37.744Z,51.259560
2022-07-26T04:10:37.729Z,51.259560
2022-07-26T04:11:37.745Z,51.259541
2022-07-26T04:12:37.701Z,51.259525
2022-07-26T04:13:37.717Z,51.259518
2022-07-26T04:14:37.700Z,51.259521
2022-07-26T04:15:37.685Z,51.259502
2022-07-26T04:16:42.940Z,51.259525
2022-07-26T04:17:38.667Z,51.259537
2022-07-26T04:18:37.654Z,51.259506
2022-07-26T04:19:39.963Z,51.259506
2022-07-26T04:20:37.629Z,51.259499
2022-07-26T04:21:37.645Z,51.259487
2022-07-26T04:22:37.621Z,51.259480
2022-07-26T04:23:37.601Z,51.259525
2022-07-26T04:24:37.605Z,51.259548
2022-07-26T04:25:38.715Z,51.259521
2022-07-26T04:26:37.595Z,51.259510
2022-07-26T04:27:37.569Z,51.259525
2022-07-26T04:28:37.559Z,51.259510
2022-07-26T04:29:37.548Z,51.259518
2022-07-26T04:30:37.586Z,51.259521
2022-07-26T04:31:37.545Z,51.259525
2022-07-26T04:32:37.510Z,51.259544
2022-07-26T04:33:38.510Z,51.259533
2022-07-26T04:34:37.495Z,51.259514
2022-07-26T04:35:37.496Z,51.259510
2022-07-26T04:36:37.481Z,51.259533
2022-07-26T04:37:37.471Z,51.259495
2022-07-26T04:38:37.449Z,51.259529
2022-07-26T04:39:38.453Z,51.259457
2022-07-26T04:40:40.813Z,51.259514
2022-07-26T04:41:37.480Z,51.259460
2022-07-26T04:42:37.423Z,51.259487
2022-07-26T04:43:37.413Z,51.259460
2022-07-26T04:44:37.397Z,51.259407
2022-07-26T04:45:37.477Z,51.259499
2022-07-26T04:46:37.497Z,51.259510
2022-07-26T04:47:38.368Z,51.259533
2022-07-26T04:48:37.402Z,51.259487
2022-07-26T04:49:37.358Z,51.259468
2022-07-26T04:50:37.349Z,51.259529
2022-07-26T04:51:37.354Z,51.259480
2022-07-26T04:52:37.321Z,51.259480
2022-07-26T04:53:37.321Z,51.259480
2022-07-26T04:54:37.306Z,51.259552
2022-07-26T04:55:37.296Z,51.259617
2022-07-26T04:56:37.306Z,51.259605
2022-07-26T04:57:37.304Z,51.259487
2022-07-26T04:58:37.264Z,51.259560
2022-07-26T04:59:37.254Z,51.259537
2022-07-26T05:00:51.368Z,51.259502
2022-07-26T05:01:39.262Z,51.259571
2022-07-26T05:02:37.345Z,51.259487
2022-07-26T05:03:37.210Z,51.259480
2022-07-26T05:04:37.201Z,51.259506
2022-07-26T05:05:37.193Z,51.259499
2022-07-26T05:06:37.187Z,51.259518
2022-07-26T05:07:37.195Z,51.259598
2022-07-26T05:08:37.168Z,51.259548
2022-07-26T05:09:37.161Z,51.259548
2022-07-26T05:10:37.142Z,51.259544
2022-07-26T05:11:37.131Z,51.259418
2022-07-26T05:12:37.147Z,51.259491
2022-07-26T05:13:37.114Z,51.259548
2022-07-26T05:14:37.104Z,51.259464
2022-07-26T05:15:37.091Z,51.259502
2022-07-26T05:16:39.077Z,51.259579
2022-07-26T05:17:38.094Z,51.259602
2022-07-26T05:18:45.715Z,51.259541
2022-07-26T05:19:38.049Z,51.259502
2022-07-26T05:20:37.032Z,51.259483
2022-07-26T05:21:37.025Z,51.259552
2022-07-26T05:22:37.043Z,51.259544
2022-07-26T05:23:37.010Z,51.259521
2022-07-26T05:24:36.992Z,51.259483
2022-07-26T05:25:36.990Z,51.259506
2022-07-26T05:26:36.986Z,51.259567
2022-07-26T05:27:36.994Z,51.259560
2022-07-26T05:28:36.960Z,51.259510
2022-07-26T05:29:36.947Z,51.259495
2022-07-26T05:30:36.990Z,51.259518
2022-07-26T05:31:36.934Z,51.259518
2022-07-26T05:32:53.103Z,51.259521
2022-07-26T05:33:36.912Z,51.259491
2022-07-26T05:34:36.905Z,51.259544
2022-07-26T05:35:36.895Z,51.259449
2022-07-26T05:36:36.894Z,51.259506
2022-07-26T05:37:36.890Z,51.259563
2022-07-26T05:38:36.879Z,51.259552
2022-07-26T05:39:36.838Z,51.259571
2022-07-26T05:40:36.841Z,51.259560
2022-07-26T05:41:36.824Z,51.259537
2022-07-26T05:42:36.839Z,51.259502
2022-07-26T05:43:41.363Z,51.259583
2022-07-26T05:44:42.517Z,51.259518
2022-07-26T05:45:37.835Z,51.259613
2022-07-26T05:46:36.829Z,51.259605
2022-07-26T05:47:36.787Z,51.259537
2022-07-26T05:48:36.829Z,51.259533
2022-07-26T05:49:40.144Z,51.259579
2022-07-26T05:50:36.745Z,51.259609
2022-07-26T05:51:36.729Z,51.259560
2022-07-26T05:52:36.742Z,51.259560
2022-07-26T05:53:36.718Z,51.259537
2022-07-26T05:54:36.712Z,51.259609
2022-07-26T05:55:36.693Z,51.259567
2022-07-26T05:56:36.685Z,51.259548
2022-07-26T05:57:36.694Z,51.259521
2022-07-26T05:58:36.670Z,51.259560
2022-07-26T05:59:36.642Z,51.259529
2022-07-26T06:00:36.650Z,51.259544
2022-07-26T06:01:37.636Z,51.259529
2022-07-26T06:02:36.756Z,51.259560
2022-07-26T06:03:36.627Z,51.259556
2022-07-26T06:04:36.652Z,51.259586
2022-07-26T06:05:36.597Z,51.259548
2022-07-26T06:06:36.595Z,51.259541
2022-07-26T06:07:36.584Z,51.259529
2022-07-26T06:08:36.566Z,51.259518
2022-07-26T06:09:36.557Z,51.259518
2022-07-26T06:10:36.563Z,51.259518
2022-07-26T06:11:36.533Z,51.259537
2022-07-26T06:12:36.549Z,51.259529
2022-07-26T06:13:36.522Z,51.259579
2022-07-26T06:14:36.508Z,51.259567
2022-07-26T06:15:36.489Z,51.259495
2022-07-26T06:16:36.513Z,51.259491
2022-07-26T06:17:36.547Z,51.259529
2022-07-26T06:18:36.477Z,51.259514
2022-07-26T06:19:36.461Z,51.259510
2022-07-26T06:20:36.455Z,51.259525
2022-07-26T06:21:36.447Z,51.259563
2022-07-26T06:22:36.473Z,51.259575
2022-07-26T06:23:36.418Z,51.259594
2022-07-26T06:24:36.420Z,51.259583
2022-07-26T06:25:36.407Z,51.259560
2022-07-26T06:26:36.423Z,51.259537
2022-07-26T06:27:36.395Z,51.259468
2022-07-26T06:28:36.377Z,51.259544
2022-07-26T06:29:36.377Z,51.259548
2022-07-26T06:30:36.358Z,51.259491
2022-07-26T06:31:36.414Z,51.259499
2022-07-26T06:32:36.351Z,51.259487
2022-07-26T06:33:36.334Z,51.259518
2022-07-26T06:34:36.320Z,51.259552
2022-07-26T06:35:36.303Z,51.259521
2022-07-26T06:36:36.302Z,51.259533
2022-07-26T06:37:36.312Z,51.259563
2022-07-26T06:38:36.286Z,51.259415
2022-07-26T06:39:36.260Z,51.259529
2022-07-26T06:40:36.278Z,51.259453
2022-07-26T06:41:36.249Z,51.259518
2022-07-26T06:42:36.253Z,51.259518
2022-07-26T06:43:36.237Z,51.259617
2022-07-26T06:44:36.214Z,51.259621
2022-07-26T06:45:36.267Z,51.259567
2022-07-26T06:46:36.203Z,51.259476
2022-07-26T06:47:36.203Z,51.259472
2022-07-26T06:48:36.235Z,51.259277
2022-07-26T06:49:36.298Z,51.259441
2022-07-26T06:50:36.169Z,51.259426
2022-07-26T06:51:36.160Z,51.259518
2022-07-26T06:52:36.165Z,51.259373
2022-07-26T06:53:36.148Z,51.259399
2022-07-26T06:54:36.126Z,51.259441
2022-07-26T06:55:36.109Z,51.259510
2022-07-26T06:56:36.105Z,51.259357
2022-07-26T06:57:40.374Z,51.259445
2022-07-26T06:58:37.085Z,51.259453
2022-07-26T06:59:36.069Z,51.259411
2022-07-26T07:00:36.071Z,51.259411
2022-07-26T07:01:51.607Z,51.259418
2022-07-26T07:02:37.085Z,51.259315
2022-07-26T07:03:36.033Z,51.259262
2022-07-26T07:04:36.053Z,51.259617
2022-07-26T07:05:36.017Z,51.259499
2022-07-26T07:06:36.040Z,51.259453
2022-07-26T07:07:36.006Z,51.259487
2022-07-26T07:08:36.007Z,51.259491
2022-07-26T07:09:35.981Z,51.259468
2022-07-26T07:10:35.993Z,51.259399
2022-07-26T07:11:35.948Z,51.259453
2022-07-26T07:12:35.961Z,51.259472
2022-07-26T07:13:35.955Z,51.259518
2022-07-26T07:14:35.932Z,51.259529
2022-07-26T07:15:35.921Z,51.259464
2022-07-26T07:16:35.973Z,51.259460
2022-07-26T07:17:35.918Z,51.259445
2022-07-26T07:18:35.894Z,51.259602
2022-07-26T07:19:35.885Z,51.259571
2022-07-26T07:20:35.874Z,51.259430
2022-07-26T07:21:35.866Z,51.259438
2022-07-26T07:22:35.906Z,51.259392
2022-07-26T07:23:35.848Z,51.259418
2022-07-26T07:24:37.123Z,51.259476
2022-07-26T07:25:35.826Z,51.259502
2022-07-26T07:26:36.940Z,51.259590
2022-07-26T07:27:35.817Z,51.259560
2022-07-26T07:28:35.795Z,51.259541
2022-07-26T07:29:35.788Z,51.259468
2022-07-26T07:30:35.787Z,51.259472
2022-07-26T07:31:48.635Z,51.259445
2022-07-26T07:32:36.845Z,51.259480
2022-07-26T07:33:43.573Z,51.259499
2022-07-26T07:34:36.739Z,51.259563
2022-07-26T07:35:35.715Z,51.259560
2022-07-26T07:36:35.722Z,51.259491
2022-07-26T07:37:52.929Z,51.259476
2022-07-26T07:38:37.380Z,51.259514
2022-07-26T07:39:38.501Z,51.259529
2022-07-26T07:40:35.706Z,51.259541
2022-07-26T07:41:35.670Z,51.259510
2022-07-26T07:42:35.679Z,51.259521
2022-07-26T07:43:35.643Z,51.259548
2022-07-26T07:44:35.643Z,51.259537
2022-07-26T07:45:35.629Z,51.259460
2022-07-26T07:46:35.656Z,51.259464
2022-07-26T07:47:35.639Z,51.259441
2022-07-26T07:48:35.670Z,51.259464
2022-07-26T07:49:35.646Z,51.259502
2022-07-26T07:50:35.590Z,51.259495
2022-07-26T07:51:36.165Z,51.259518
2022-07-26T07:52:35.578Z,51.259514
2022-07-26T07:53:35.550Z,51.259537
2022-07-26T07:54:35.564Z,51.259556
2022-07-26T07:55:41.388Z,51.259533
2022-07-26T07:56:37.528Z,51.259518
2022-07-26T07:57:35.536Z,51.259529
2022-07-26T07:58:35.497Z,51.259495
2022-07-26T07:59:39.123Z,51.259499
2022-07-26T08:00:35.505Z,51.259518
2022-07-26T08:01:39.790Z,51.259491
2022-07-26T08:02:36.498Z,51.259460
2022-07-26T08:03:38.747Z,51.259483
2022-07-26T08:04:35.560Z,51.259518
2022-07-26T08:05:35.441Z,51.259514
2022-07-26T08:06:35.429Z,51.259510
2022-07-26T08:07:36.283Z,51.259495
2022-07-26T08:08:35.422Z,51.259499
2022-07-26T08:09:35.415Z,51.259460
2022-07-26T08:10:35.390Z,51.259453
2022-07-26T08:11:35.374Z,51.259491
2022-07-26T08:12:35.407Z,51.259491
2022-07-26T08:13:35.361Z,51.259449
2022-07-26T08:14:35.392Z,51.259422
2022-07-26T08:15:35.343Z,51.259537
2022-07-26T08:16:35.366Z,51.259586
2022-07-26T08:17:38.080Z,51.259491
2022-07-26T08:18:36.491Z,51.259407
2022-07-26T08:19:41.715Z,51.259434
2022-07-26T08:20:36.291Z,51.259548
2022-07-26T08:21:35.287Z,51.259518
2022-07-26T08:22:35.267Z,51.259552
2022-07-26T08:23:35.268Z,51.259499
2022-07-26T08:24:35.248Z,51.259499
2022-07-26T08:25:35.239Z,51.259441
2022-07-26T08:26:35.227Z,51.259434
2022-07-26T08:27:40.682Z,51.259464
2022-07-26T08:28:59.570Z,51.259476
2022-07-26T08:29:37.193Z,51.259399
2022-07-26T08:30:35.179Z,51.259430
2022-07-26T08:31:35.190Z,51.259453
2022-07-26T08:32:35.157Z,51.259399
2022-07-26T08:33:35.170Z,51.259464
2022-07-26T08:34:35.133Z,51.259567
2022-07-26T08:35:35.136Z,51.259518
2022-07-26T08:36:35.120Z,51.259537
2022-07-26T08:37:35.113Z,51.259510
2022-07-26T08:38:35.112Z,51.259476
2022-07-26T08:39:35.091Z,51.259506
2022-07-26T08:40:35.075Z,51.259521
2022-07-26T08:41:36.063Z,51.259506
2022-07-26T08:42:35.064Z,51.259529
2022-07-26T08:43:43.754Z,51.259544
2022-07-26T08:44:36.036Z,51.259537
2022-07-26T08:45:35.030Z,51.259502
2022-07-26T08:46:35.100Z,51.259510
2022-07-26T08:47:35.630Z,51.259514
2022-07-26T08:48:38.698Z,51.259521
2022-07-26T08:49:35.987Z,51.259514
2022-07-26T08:50:34.976Z,51.259529
2022-07-26T08:51:34.971Z,51.259541
2022-07-26T08:52:34.981Z,51.259514
2022-07-26T08:53:35.036Z,51.259529
2022-07-26T08:54:34.997Z,51.259514
2022-07-26T08:55:56.758Z,51.259525
2022-07-26T08:56:36.924Z,51.259499
2022-07-26T08:57:35.003Z,51.259529
2022-07-26T08:58:34.960Z,51.259499
2022-07-26T08:59:34.891Z,51.259487
2022-07-26T09:00:34.978Z,51.259499
2022-07-26T09:01:35.001Z,51.259499
2022-07-26T09:02:34.886Z,51.259499
2022-07-26T09:03:34.991Z,51.259529
2022-07-26T09:04:41.464Z,51.259552
2022-07-26T09:05:36.833Z,51.259590
2022-07-26T09:06:34.899Z,51.259525
2022-07-26T09:07:34.838Z,51.259541
2022-07-26T09:08:34.897Z,51.259529
2022-07-26T09:09:34.893Z,51.259502
2022-07-26T09:10:39.007Z,51.259575
2022-07-26T09:11:34.894Z,51.259529
2022-07-26T09:12:34.821Z,51.259533
2022-07-26T09:13:34.876Z,51.259525
2022-07-26T09:14:34.834Z,51.259544
2022-07-26T09:15:34.799Z,51.259575
2022-07-26T09:16:39.266Z,51.259544
2022-07-26T09:17:36.708Z,51.259529
2022-07-26T09:18:34.844Z,51.259575
2022-07-26T09:19:35.675Z,51.259476
2022-07-26T09:20:34.787Z,51.259510
2022-07-26T09:21:34.745Z,51.259491
2022-07-26T09:22:34.739Z,51.259480
2022-07-26T09:23:34.738Z,51.259537
2022-07-26T09:24:34.762Z,51.259548
2022-07-26T09:25:34.717Z,51.259544
2022-07-26T09:26:35.674Z,51.259567
2022-07-26T09:27:34.665Z,51.259502
2022-07-26T09:28:34.763Z,51.259541
2022-07-26T09:29:34.595Z,51.259533
2022-07-26T09:30:34.707Z,51.259563
2022-07-26T09:31:35.350Z,51.259556
2022-07-26T09:32:35.176Z,51.259544
2022-07-26T09:33:35.182Z,51.259548
2022-07-26T09:34:34.722Z,51.259575
2022-07-26T09:35:52.094Z,51.259552
2022-07-26T09:36:36.531Z,51.259537
2022-07-26T09:37:34.507Z,51.259510
2022-07-26T09:38:34.509Z,51.259529
2022-07-26T09:39:34.607Z,51.259502
2022-07-26T09:40:34.559Z,51.259502
2022-07-26T09:41:34.482Z,51.259483
2022-07-26T09:42:34.466Z,51.259521
2022-07-26T09:43:34.454Z,51.259560
2022-07-26T09:44:34.438Z,51.259533
2022-07-26T09:45:35.430Z,51.259537
2022-07-26T09:46:34.504Z,51.259495
2022-07-26T09:47:34.414Z,51.259495
2022-07-26T09:48:59.366Z,51.259487
2022-07-26T09:49:40.567Z,51.259518
2022-07-26T09:50:34.388Z,51.259529
2022-07-26T09:51:34.370Z,51.259518
2022-07-26T09:52:34.365Z,51.259499
2022-07-26T09:53:34.396Z,51.259491
2022-07-26T09:54:34.352Z,51.259544
2022-07-26T09:55:44.248Z,51.259563
2022-07-26T09:56:35.333Z,51.259571
2022-07-26T09:57:34.323Z,51.259567
2022-07-26T09:58:34.343Z,51.259521
2022-07-26T09:59:34.289Z,51.259518
2022-07-26T10:00:34.305Z,51.259537
2022-07-26T10:01:34.346Z,51.259491
2022-07-26T10:02:34.322Z,51.259464
2022-07-26T10:03:34.284Z,51.259499
2022-07-26T10:04:34.268Z,51.259487
2022-07-26T10:05:34.256Z,51.259525
2022-07-26T10:06:34.247Z,51.259510
2022-07-26T10:07:34.219Z,51.259510
2022-07-26T10:08:34.238Z,51.259499
2022-07-26T10:09:34.236Z,51.259556
2022-07-26T10:10:34.200Z,51.259525
2022-07-26T10:11:34.195Z,51.259502
2022-07-26T10:12:34.174Z,51.259518
2022-07-26T10:13:34.176Z,51.259560
2022-07-26T10:14:34.156Z,51.259468
2022-07-26T10:15:34.146Z,51.259502
2022-07-26T10:16:34.224Z,51.259548
2022-07-26T10:17:35.269Z,51.259533
2022-07-26T10:18:34.142Z,51.259552
2022-07-26T10:19:37.812Z,51.259495
2022-07-26T10:20:35.103Z,51.259518
2022-07-26T10:21:35.080Z,51.259487
2022-07-26T10:22:34.078Z,51.259411
2022-07-26T10:23:34.066Z,51.259525
2022-07-26T10:24:34.052Z,51.259571
2022-07-26T10:25:34.040Z,51.259567
2022-07-26T10:26:34.084Z,51.259491
2022-07-26T10:27:34.018Z,51.259460
2022-07-26T10:28:34.016Z,51.259460
2022-07-26T10:29:34.020Z,51.259518
2022-07-26T10:30:35.316Z,51.259464
2022-07-26T10:31:35.032Z,51.259453
2022-07-26T10:32:33.972Z,51.259445
2022-07-26T10:33:33.954Z,51.259377
2022-07-26T10:34:33.979Z,51.259464
2022-07-26T10:35:33.926Z,51.259464
2022-07-26T10:36:33.928Z,51.259502
2022-07-26T10:37:33.926Z,51.259499
2022-07-26T10:38:33.910Z,51.259476
2022-07-26T10:39:33.911Z,51.259491
2022-07-26T10:40:33.884Z,51.259502
2022-07-26T10:41:33.880Z,51.259502
2022-07-26T10:42:33.858Z,51.259453
2022-07-26T10:43:42.021Z,51.259483
2022-07-26T10:44:35.852Z,51.259487
2022-07-26T10:45:33.836Z,51.259525
2022-07-26T10:46:33.933Z,51.259583
2022-07-26T10:47:35.514Z,51.259563
2022-07-26T10:48:33.909Z,51.259495
2022-07-26T10:49:33.832Z,51.259556
2022-07-26T10:50:33.786Z,51.259453
2022-07-26T10:51:33.789Z,51.259514
2022-07-26T10:52:33.771Z,51.259598
2022-07-26T10:53:33.766Z,51.259525
2022-07-26T10:54:33.766Z,51.259480
2022-07-26T10:55:33.730Z,51.259537
2022-07-26T10:56:34.213Z,51.259495
2022-07-26T10:57:33.724Z,51.259483
2022-07-26T10:58:33.709Z,51.259487
2022-07-26T10:59:54.787Z,51.259464
2022-07-26T11:00:35.681Z,51.259445
2022-07-26T11:01:33.777Z,51.259491
2022-07-26T11:02:33.687Z,51.259487
2022-07-26T11:03:38.483Z,51.259472
2022-07-26T11:04:34.661Z,51.259472
2022-07-26T11:05:33.640Z,51.259415
2022-07-26T11:06:33.631Z,51.259491
2022-07-26T11:07:33.611Z,51.259483
2022-07-26T11:08:33.602Z,51.259502
2022-07-26T11:09:33.629Z,51.259487
2022-07-26T11:10:33.587Z,51.259533
2022-07-26T11:11:33.592Z,51.259598
2022-07-26T11:12:33.585Z,51.259521
2022-07-26T11:13:33.571Z,51.259499
2022-07-26T11:14:33.576Z,51.259411
2022-07-26T11:15:33.609Z,51.259468
2022-07-26T11:16:33.559Z,51.259434
2022-07-26T11:17:33.521Z,51.259415
2022-07-26T11:18:33.542Z,51.259533
2022-07-26T11:19:33.514Z,51.259518
2022-07-26T11:20:33.499Z,51.259441
2022-07-26T11:21:33.538Z,51.259438
2022-07-26T11:22:33.479Z,51.259525
2022-07-26T11:23:33.462Z,51.259563
2022-07-26T11:24:33.487Z,51.259537